Time;durP1;ratioP1;P1;durP2;ratioP2;P2;SDS_P1;SDS_P2;PMS_P1;PMS_P2;Temp;Humidity;BMP_temperature;BMP_pressure;BME280_temperature;BME280_humidity;BME280_pressure;Samples;Min_cycle;Max_cycle;Signal;HPM_P1;HPM_P2
2022/12/15 00:40:35;;;;;;;47.20;32.83;;;-8.90;99.90;;;;;;4973859;28;20068;-73
2022/12/15 00:43:03;;;;;;;55.28;33.42;;;-9.00;99.90;;;;;;4988855;28;20523;-72
2022/12/15 00:48:15;;;;;;;53.67;35.00;;;-8.90;99.90;;;;;;4978255;28;20049;-73
2022/12/15 00:50:52;;;;;;;54.03;34.30;;;-9.00;99.90;;;;;;4984276;28;20054;-72
2022/12/15 01:21:04;;;;;;;54.63;33.92;;;-9.30;99.90;;;;;;4978562;28;20046;-73
2022/12/15 01:23:31;;;;;;;53.22;33.15;;;-9.20;99.90;;;;;;4992436;28;20050;-73
2022/12/15 01:25:59;;;;;;;55.50;34.53;;;-9.20;99.90;;;;;;4981199;28;20133;-72
2022/12/15 01:28:25;;;;;;;51.50;33.38;;;-9.40;99.90;;;;;;4967547;28;20050;-73
2022/12/15 01:30:52;;;;;;;50.97;32.22;;;-9.40;99.90;;;;;;4988975;28;20054;-72
2022/12/15 01:33:20;;;;;;;56.10;34.63;;;-9.20;99.90;;;;;;4979478;28;20062;-74
2022/12/15 01:35:56;;;;;;;52.03;32.70;;;-9.20;99.90;;;;;;4977289;28;20054;-73
2022/12/15 01:38:23;;;;;;;51.53;31.30;;;-9.10;99.90;;;;;;4975592;28;20461;-73
2022/12/15 01:41:03;;;;;;;48.13;32.00;;;-9.10;99.90;;;;;;4959686;28;20305;-73
2022/12/15 01:43:33;;;;;;;54.80;31.00;;;-9.00;99.90;;;;;;4979138;28;20134;-72
2022/12/15 01:46:21;;;;;;;52.88;34.33;;;-9.20;99.90;;;;;;4977625;28;20511;-73
2022/12/15 01:48:58;;;;;;;54.42;32.72;;;-9.30;99.90;;;;;;4990460;28;20583;-73
2022/12/15 01:51:32;;;;;;;51.55;30.90;;;-9.30;99.90;;;;;;4959908;28;20050;-73
2022/12/15 01:54:04;;;;;;;56.97;32.65;;;-9.40;99.90;;;;;;4977022;28;20065;-73
2022/12/15 01:56:45;;;;;;;58.03;33.63;;;-9.50;99.90;;;;;;4979516;28;20567;-72
2022/12/15 01:59:16;;;;;;;49.67;33.30;;;-9.40;99.90;;;;;;4991398;28;20056;-73
2022/12/15 02:01:42;;;;;;;57.90;33.28;;;-9.60;99.90;;;;;;4973986;28;20046;-72
2022/12/15 02:04:18;;;;;;;49.10;32.85;;;-9.60;99.90;;;;;;4978086;28;20078;-73
2022/12/15 02:06:44;;;;;;;57.80;33.78;;;-9.50;99.90;;;;;;4991976;28;20539;-72
2022/12/15 02:09:11;;;;;;;54.92;34.78;;;-9.40;99.90;;;;;;4979130;28;20061;-73
2022/12/15 02:11:47;;;;;;;54.28;33.60;;;-9.50;99.90;;;;;;4974874;28;20050;-73
2022/12/15 02:14:55;;;;;;;64.63;36.55;;;-9.30;99.90;;;;;;4980491;28;20052;-73
2022/12/15 02:17:33;;;;;;;63.08;34.38;;;-9.20;99.90;;;;;;4977959;28;20042;-73
2022/12/15 02:20:47;;;;;;;61.17;36.50;;;-9.10;99.90;;;;;;4977057;28;20065;-72
2022/12/15 02:23:26;;;;;;;59.70;34.42;;;-9.20;99.90;;;;;;4968968;28;20047;-72
2022/12/15 02:26:17;;;;;;;58.03;32.55;;;-9.20;99.90;;;;;;4991450;28;20428;-73
2022/12/15 02:29:14;;;;;;;60.13;33.38;;;-9.20;99.90;;;;;;4975569;28;20053;-73
2022/12/15 02:32:12;;;;;;;57.50;32.25;;;-9.30;99.90;;;;;;4992080;28;20054;-73
2022/12/15 02:34:42;;;;;;;51.07;33.47;;;-9.40;99.90;;;;;;4972073;28;20526;-73
2022/12/15 02:37:17;;;;;;;53.58;33.75;;;-9.50;99.90;;;;;;4977191;28;20472;-73
2022/12/15 02:39:44;;;;;;;61.53;35.33;;;-9.50;99.90;;;;;;4975327;28;20049;-73
2022/12/15 02:42:11;;;;;;;58.13;35.22;;;-9.30;99.90;;;;;;4977981;28;20049;-73
2022/12/15 02:45:04;;;;;;;62.40;34.35;;;-9.20;99.90;;;;;;4991101;28;20054;-74
2022/12/15 02:47:45;;;;;;;60.67;36.55;;;-9.30;99.90;;;;;;4972146;28;20085;-73
2022/12/15 02:50:39;;;;;;;64.28;36.72;;;-9.10;99.90;;;;;;4976744;28;20098;-73
2022/12/15 02:53:24;;;;;;;64.03;35.92;;;-9.10;99.90;;;;;;4975146;28;20049;-73
2022/12/15 02:56:33;;;;;;;60.80;35.28;;;-9.00;99.90;;;;;;4988491;28;20126;-72
2022/12/15 02:58:59;;;;;;;56.50;35.67;;;-9.00;99.90;;;;;;4984878;28;20050;-73
2022/12/15 03:01:41;;;;;;;62.30;35.08;;;-8.90;99.90;;;;;;4953328;28;20162;-73
2022/12/15 03:04:10;;;;;;;70.88;35.88;;;-8.80;99.90;;;;;;4954005;28;20142;-72
2022/12/15 03:06:37;;;;;;;57.75;35.63;;;-8.80;99.90;;;;;;4955143;28;20336;-73
2022/12/15 03:09:04;;;;;;;70.88;38.00;;;-8.90;99.90;;;;;;4957598;28;20138;-73
2022/12/15 03:11:31;;;;;;;66.57;37.50;;;-8.80;99.90;;;;;;4956268;28;20494;-73
2022/12/15 03:13:58;;;;;;;80.05;38.35;;;-8.80;99.90;;;;;;4939099;28;20099;-72
2022/12/15 03:16:24;;;;;;;66.45;38.08;;;-8.70;99.90;;;;;;4968593;28;20043;-73
2022/12/15 03:18:51;;;;;;;69.30;38.63;;;-8.70;99.90;;;;;;4955782;28;20058;-72
2022/12/15 03:21:18;;;;;;;68.72;39.60;;;-8.50;99.90;;;;;;4956914;28;20042;-72
2022/12/15 03:23:45;;;;;;;67.25;38.05;;;-8.70;99.90;;;;;;4955367;28;20043;-72
2022/12/15 03:26:12;;;;;;;66.15;38.65;;;-8.60;99.90;;;;;;4956102;28;20150;-73
2022/12/15 03:28:38;;;;;;;71.05;36.88;;;-8.50;99.90;;;;;;4955241;28;20171;-73
2022/12/15 03:31:06;;;;;;;76.57;39.50;;;-8.50;99.90;;;;;;4957573;28;20057;-73
2022/12/15 03:33:33;;;;;;;78.57;40.63;;;-8.30;99.90;;;;;;4955066;28;20452;-73
2022/12/15 03:36:00;;;;;;;66.25;37.30;;;-8.10;99.90;;;;;;4958287;28;20562;-73
2022/12/15 03:38:27;;;;;;;69.95;38.78;;;-8.10;99.90;;;;;;4955386;28;20050;-73
2022/12/15 03:40:54;;;;;;;72.55;38.97;;;-8.20;99.90;;;;;;4937952;28;20042;-72
2022/12/15 03:43:21;;;;;;;65.65;36.67;;;-8.00;99.90;;;;;;4955698;28;20061;-73
2022/12/15 03:45:48;;;;;;;63.25;36.50;;;-8.20;99.90;;;;;;4953798;28;20130;-73
2022/12/15 03:48:15;;;;;;;63.65;35.97;;;-8.20;99.90;;;;;;4955545;28;20050;-73
2022/12/15 03:50:41;;;;;;;79.78;37.22;;;-8.30;99.90;;;;;;4954119;28;20042;-73
2022/12/15 03:53:08;;;;;;;71.47;38.58;;;-8.10;99.90;;;;;;4956562;28;20038;-73
2022/12/15 03:55:35;;;;;;;66.63;39.15;;;-8.00;99.90;;;;;;5021510;23;20215;-71
2022/12/15 03:58:01;;;;;;;67.72;38.15;;;-8.10;99.90;;;;;;5032331;28;20334;-71
2022/12/15 04:00:29;;;;;;;72.30;39.90;;;-7.90;99.90;;;;;;5027136;28;20550;-71
2022/12/15 04:02:55;;;;;;;70.10;41.83;;;-8.00;99.90;;;;;;5030049;28;20057;-71
2022/12/15 04:05:27;;;;;;;72.70;38.42;;;-8.00;99.90;;;;;;5031169;28;20044;-70
2022/12/15 04:07:55;;;;;;;80.05;41.40;;;-7.90;99.90;;;;;;5032420;28;20041;-71
2022/12/15 04:10:23;;;;;;;77.38;41.83;;;-7.70;99.90;;;;;;5034255;28;20041;-71
2022/12/15 04:12:59;;;;;;;74.38;41.33;;;-7.70;99.90;;;;;;5016083;28;20130;-71
2022/12/15 04:15:26;;;;;;;67.88;40.42;;;-7.60;99.90;;;;;;5031930;28;20502;-71
2022/12/15 04:17:53;;;;;;;81.30;41.03;;;-7.50;99.90;;;;;;5032039;28;20029;-72
2022/12/15 04:20:21;;;;;;;78.50;40.65;;;-7.70;99.90;;;;;;5032232;28;20143;-71
2022/12/15 04:22:50;;;;;;;69.60;37.67;;;-7.80;99.90;;;;;;5033049;28;20037;-71
2022/12/15 05:32:07;;;;;;;72.72;42.97;;;-8.40;99.90;;;;;;5033833;28;20037;-71
2022/12/15 05:34:34;;;;;;;76.78;43.13;;;-8.50;99.90;;;;;;5032792;28;20040;-71
2022/12/15 05:37:03;;;;;;;61.70;38.83;;;-8.60;99.90;;;;;;5034868;28;20063;-71
2022/12/15 05:39:30;;;;;;;73.93;41.70;;;-8.60;99.90;;;;;;5034521;28;20044;-71
2022/12/15 05:41:56;;;;;;;72.43;41.83;;;-8.70;99.90;;;;;;5036246;28;20045;-71
2022/12/15 05:44:24;;;;;;;79.68;45.63;;;-8.60;99.90;;;;;;5031659;28;20194;-72
2022/12/15 05:46:51;;;;;;;76.28;43.40;;;-8.70;99.90;;;;;;5036381;28;20052;-71
2022/12/15 05:49:18;;;;;;;82.38;46.17;;;-8.90;99.90;;;;;;5036484;28;20127;-71
2022/12/15 05:51:46;;;;;;;71.68;44.58;;;-8.90;99.90;;;;;;5033372;28;20485;-71
2022/12/15 05:54:18;;;;;;;76.75;45.72;;;-8.90;99.90;;;;;;5037752;28;20051;-71
2022/12/15 05:56:46;;;;;;;79.95;44.58;;;-8.90;99.90;;;;;;5033731;28;20043;-71
2022/12/15 05:59:16;;;;;;;72.72;42.45;;;-8.90;99.90;;;;;;5034908;28;20462;-71
2022/12/15 06:01:43;;;;;;;70.78;42.60;;;-8.80;99.90;;;;;;5034392;28;20491;-71
2022/12/15 06:04:14;;;;;;;75.90;45.42;;;-8.90;99.90;;;;;;5038222;28;20136;-72
2022/12/15 06:06:41;;;;;;;82.68;48.35;;;-9.00;99.90;;;;;;5033032;28;20106;-72
2022/12/15 06:09:08;;;;;;;79.80;48.35;;;-9.10;99.90;;;;;;5035402;28;20045;-71
2022/12/15 06:11:36;;;;;;;75.65;45.45;;;-9.10;99.90;;;;;;5033742;28;20399;-71
2022/12/15 06:14:02;;;;;;;85.45;49.30;;;-9.10;99.90;;;;;;5035185;28;20119;-71
2022/12/15 06:16:29;;;;;;;79.30;48.05;;;-9.10;99.90;;;;;;5034135;28;20060;-72
2022/12/15 06:18:59;;;;;;;81.03;47.90;;;-9.10;99.90;;;;;;5035581;28;20045;-71
2022/12/15 06:21:34;;;;;;;85.55;49.10;;;-8.90;99.90;;;;;;5031549;28;20049;-71
2022/12/15 06:24:01;;;;;;;;;;;-8.80;99.90;;;;;;5036134;28;20037;-71
2022/12/15 06:26:34;;;;;;;81.05;43.10;;;-8.70;99.90;;;;;;5034432;28;20287;-71
2022/12/15 06:29:02;;;;;;;73.57;44.22;;;-8.80;99.90;;;;;;5034809;28;20499;-72
2022/12/15 06:31:29;;;;;;;73.20;42.40;;;-8.70;99.90;;;;;;5034049;28;20037;-71
2022/12/15 06:33:57;;;;;;;69.40;41.17;;;-8.70;99.90;;;;;;5032817;28;20068;-71
2022/12/15 06:36:29;;;;;;;72.47;39.92;;;-8.70;99.90;;;;;;5034474;28;20029;-70
2022/12/15 06:39:01;;;;;;;76.80;42.22;;;-8.60;99.90;;;;;;5035428;28;20029;-71
2022/12/15 06:41:29;;;;;;;82.22;42.90;;;-8.60;99.90;;;;;;5033866;28;20207;-71
2022/12/15 06:43:56;;;;;;;84.28;47.22;;;-8.60;99.90;;;;;;5017936;28;20040;-71
2022/12/15 06:46:24;;;;;;;84.90;45.55;;;-8.50;99.90;;;;;;5034645;28;20287;-71
2022/12/15 06:48:52;;;;;;;90.00;46.35;;;-8.50;99.90;;;;;;5036561;28;20056;-72
2022/12/15 06:51:18;;;;;;;85.22;45.50;;;-8.40;99.90;;;;;;5035975;28;20256;-71
2022/12/15 06:53:49;;;;;;;71.90;43.20;;;-8.20;99.90;;;;;;5049414;28;20041;-72
2022/12/15 06:56:20;;;;;;;95.72;49.28;;;-8.10;99.90;;;;;;5036913;28;20260;-71
2022/12/15 06:58:54;;;;;;;81.63;47.10;;;-8.00;99.90;;;;;;5040505;28;20041;-71
2022/12/15 07:01:22;;;;;;;93.57;51.55;;;-7.90;99.90;;;;;;5033851;28;20044;-70
2022/12/15 07:03:53;;;;;;;83.90;50.17;;;-7.90;99.90;;;;;;5033034;28;20049;-71
2022/12/15 07:06:20;;;;;;;89.00;49.85;;;-7.80;99.90;;;;;;5034974;28;20048;-71
2022/12/15 07:08:51;;;;;;;81.15;46.38;;;-7.80;99.90;;;;;;5032212;28;20036;-71
2022/12/15 07:11:19;;;;;;;89.47;48.40;;;-7.90;99.90;;;;;;5033182;28;20047;-71
2022/12/15 07:13:51;;;;;;;87.72;48.80;;;-8.00;99.90;;;;;;5029722;28;21651;-71
2022/12/15 07:16:18;;;;;;;118.35;61.10;;;-7.90;99.90;;;;;;5034024;28;20065;-71
2022/12/15 07:18:45;;;;;;;171.38;81.50;;;-7.90;99.90;;;;;;5033994;28;20063;-71
2022/12/15 07:21:12;;;;;;;143.50;71.60;;;-8.30;99.90;;;;;;5034766;28;20037;-71
2022/12/15 07:23:39;;;;;;;173.32;76.05;;;-8.20;99.90;;;;;;5033693;28;20044;-72
2022/12/15 07:26:21;;;;;;;138.55;70.03;;;-8.30;99.90;;;;;;5033481;28;20037;-71
2022/12/15 07:28:48;;;;;;;227.77;100.40;;;-8.50;99.90;;;;;;5035737;28;20032;-72
2022/12/15 07:31:15;;;;;;;104.50;59.10;;;-8.50;99.90;;;;;;5037060;28;20040;-72
2022/12/15 07:33:41;;;;;;;104.05;57.80;;;-8.50;99.90;;;;;;5033913;28;20197;-72
2022/12/15 07:36:09;;;;;;;91.32;56.00;;;-8.50;99.90;;;;;;5036982;28;20576;-72
2022/12/15 07:38:36;;;;;;;106.53;58.30;;;-8.30;99.90;;;;;;5033291;28;20045;-72
2022/12/15 07:41:05;;;;;;;144.73;75.18;;;-8.10;99.90;;;;;;5036174;28;20033;-72
2022/12/15 07:43:32;;;;;;;107.70;60.25;;;-8.00;99.90;;;;;;5033614;28;20143;-72
2022/12/15 07:46:00;;;;;;;107.05;59.92;;;-8.00;99.90;;;;;;5036093;28;20065;-71
2022/12/15 07:48:28;;;;;;;92.00;52.10;;;-8.00;99.90;;;;;;5018471;28;20059;-72
2022/12/15 07:50:58;;;;;;;90.93;49.05;;;-8.10;99.90;;;;;;5032286;28;20044;-71
2022/12/15 07:53:36;;;;;;;79.50;48.28;;;-8.10;99.90;;;;;;5034456;28;20041;-72
2022/12/15 07:56:05;;;;;;;85.07;53.13;;;-8.00;99.90;;;;;;5035736;28;20269;-71
2022/12/15 07:58:35;;;;;;;83.97;53.15;;;-8.00;99.90;;;;;;5034526;28;20128;-72
2022/12/15 08:01:05;;;;;;;84.07;55.08;;;-8.00;99.90;;;;;;5035223;28;20576;-72
2022/12/15 08:03:32;;;;;;;81.15;53.00;;;-7.80;99.90;;;;;;5031565;28;20098;-72
2022/12/15 08:06:09;;;;;;;81.85;51.92;;;-7.70;99.90;;;;;;5035939;28;21303;-72
2022/12/15 08:08:36;;;;;;;80.07;50.22;;;-7.80;99.90;;;;;;5035185;28;20055;-71
2022/12/15 08:11:10;;;;;;;76.45;46.72;;;-7.80;99.90;;;;;;5035301;28;20032;-72
2022/12/15 08:13:38;;;;;;;72.30;48.47;;;-7.70;99.90;;;;;;5035718;28;20036;-72
2022/12/15 08:16:25;;;;;;;62.75;44.22;;;-7.60;99.90;;;;;;5032774;28;20129;-72
2022/12/15 08:18:52;;;;;;;72.63;47.88;;;-7.60;99.90;;;;;;5032745;28;20044;-72
2022/12/15 08:21:19;;;;;;;73.57;44.92;;;-7.50;99.90;;;;;;5035855;28;20208;-72
2022/12/15 08:23:46;;;;;;;64.90;45.30;;;-7.40;99.90;;;;;;5032068;28;20037;-71
2022/12/15 08:26:16;;;;;;;75.03;46.15;;;-7.40;99.90;;;;;;5036481;28;20041;-72
2022/12/15 08:28:44;;;;;;;71.60;46.83;;;-7.40;99.90;;;;;;5031651;28;20044;-72
2022/12/15 08:31:17;;;;;;;78.20;46.45;;;-7.30;99.90;;;;;;5034982;28;20069;-72
2022/12/15 08:33:44;;;;;;;70.80;46.53;;;-7.20;99.90;;;;;;5034336;28;20068;-72
2022/12/15 08:36:13;;;;;;;70.82;46.42;;;-7.10;99.90;;;;;;5036111;28;20041;-72
2022/12/15 08:38:41;;;;;;;69.03;46.25;;;-7.10;99.90;;;;;;5035652;28;21796;-72
2022/12/15 08:41:14;;;;;;;80.40;46.67;;;-7.10;99.90;;;;;;5036737;28;20132;-72
2022/12/15 08:43:42;;;;;;;80.07;51.80;;;-7.00;99.90;;;;;;5034066;28;20061;-72
2022/12/15 08:46:15;;;;;;;81.60;52.08;;;-6.90;99.90;;;;;;5035738;28;20049;-72
2022/12/15 08:48:42;;;;;;;75.45;54.42;;;-6.60;99.90;;;;;;5032162;28;20048;-72
2022/12/15 08:51:09;;;;;;;80.22;57.83;;;-6.30;99.90;;;;;;5036045;28;20037;-72
2022/12/15 08:53:36;;;;;;;80.38;60.03;;;-6.10;99.90;;;;;;5033866;28;20033;-72
2022/12/15 08:56:05;;;;;;;918.92;152.70;;;-5.80;99.90;;;;;;5035463;28;20037;-72
2022/12/15 08:58:32;;;;;;;142.35;65.05;;;-5.50;99.90;;;;;;5034384;28;20037;-72
2022/12/15 09:01:05;;;;;;;76.88;59.63;;;-5.30;99.90;;;;;;5034287;28;20045;-72
2022/12/15 09:03:32;;;;;;;86.05;61.03;;;-4.90;99.90;;;;;;5028641;28;20152;-72
2022/12/15 09:06:04;;;;;;;85.05;66.55;;;-4.70;99.90;;;;;;5034731;28;20073;-72
2022/12/15 09:08:32;;;;;;;94.60;68.28;;;-4.70;99.90;;;;;;5034800;28;20051;-72
2022/12/15 09:11:00;;;;;;;81.25;63.88;;;-4.80;99.90;;;;;;5034189;28;20036;-72
2022/12/15 09:13:27;;;;;;;76.93;62.13;;;-4.90;99.90;;;;;;5039402;28;20037;-72
2022/12/15 09:16:00;;;;;;;81.88;65.20;;;-5.00;99.90;;;;;;5035859;28;20295;-72
2022/12/15 09:18:36;;;;;;;82.60;63.67;;;-5.00;99.90;;;;;;5038019;28;20079;-72
2022/12/15 09:21:06;;;;;;;100.68;69.35;;;-4.90;99.90;;;;;;5037241;28;20663;-72
2022/12/15 09:23:33;;;;;;;95.15;67.70;;;-4.90;99.90;;;;;;5036681;28;20048;-72
2022/12/15 09:26:13;;;;;;;97.35;68.70;;;-4.90;99.90;;;;;;5037085;28;20064;-72
2022/12/15 09:28:41;;;;;;;153.30;83.28;;;-4.90;99.90;;;;;;5038262;28;20049;-72
2022/12/15 09:31:19;;;;;;;146.10;86.00;;;-4.90;99.90;;;;;;5032515;28;20068;-72
2022/12/15 09:33:47;;;;;;;93.57;66.72;;;-4.90;99.90;;;;;;5036605;28;20045;-72
2022/12/15 09:36:14;;;;;;;92.75;65.65;;;-4.90;99.90;;;;;;5039944;28;20128;-72
2022/12/15 09:38:42;;;;;;;188.68;93.72;;;-5.00;99.90;;;;;;5035566;28;20424;-72
2022/12/15 09:41:12;;;;;;;168.02;90.60;;;-5.00;99.90;;;;;;5034876;28;20052;-72
2022/12/15 09:43:53;;;;;;;352.73;151.45;;;-4.80;99.90;;;;;;5037673;28;20104;-72
2022/12/15 09:46:59;;;;;;;250.00;109.53;;;-4.50;99.90;;;;;;5034222;28;20993;-72
2022/12/15 09:49:31;;;;;;;100.60;67.53;;;-4.10;99.90;;;;;;5037537;28;20045;-72
2022/12/15 09:52:05;;;;;;;120.90;73.82;;;-3.90;99.90;;;;;;5035198;28;20071;-72
2022/12/15 09:54:40;;;;;;;108.55;69.93;;;-3.30;99.90;;;;;;5055698;23;20068;-76
2022/12/15 09:57:13;;;;;;;82.18;58.20;;;-2.80;99.90;;;;;;5036589;28;20267;-74
2022/12/15 10:00:11;;;;;;;70.28;56.80;;;-2.40;99.90;;;;;;5020714;28;20041;-75
2022/12/15 10:02:41;;;;;;;68.53;60.80;;;-1.80;99.90;;;;;;5051492;28;20596;-75
2022/12/15 10:05:34;;;;;;;62.17;55.53;;;-1.50;99.90;;;;;;5010369;28;20112;-75
2022/12/15 10:08:22;;;;;;;60.67;55.13;;;-1.10;99.90;;;;;;5019083;28;20041;-75
2022/12/15 10:10:58;;;;;;;66.85;60.45;;;-1.20;99.90;;;;;;5015805;28;20136;-75
2022/12/15 10:13:27;;;;;;;66.03;59.60;;;-1.20;99.90;;;;;;5017453;28;20038;-75
2022/12/15 10:16:13;;;;;;;82.25;72.20;;;-1.20;99.90;;;;;;5033457;28;20042;-75
2022/12/15 10:19:04;;;;;;;73.50;66.00;;;-1.30;99.90;;;;;;5016998;28;20049;-74
2022/12/15 10:21:31;;;;;;;68.78;62.03;;;-1.50;99.90;;;;;;5030060;28;20211;-75
2022/12/15 10:24:14;;;;;;;64.60;58.60;;;-1.40;99.90;;;;;;5017287;28;20048;-75
2022/12/15 10:26:42;;;;;;;68.82;61.63;;;-1.10;99.90;;;;;;5016228;28;20064;-75
2022/12/15 10:29:26;;;;;;;65.30;59.30;;;-0.60;99.90;;;;;;5045806;28;20137;-75
2022/12/15 10:32:04;;;;;;;81.88;73.63;;;-0.20;99.90;;;;;;5016040;28;20132;-75
2022/12/15 10:34:36;;;;;;;89.00;80.13;;;0.10;99.90;;;;;;5018081;28;20037;-75
2022/12/15 10:37:04;;;;;;;80.78;72.88;;;0.20;99.90;;;;;;5016815;28;20045;-75
2022/12/15 10:39:38;;;;;;;81.30;73.32;;;0.30;99.90;;;;;;5032818;28;20064;-75
2022/12/15 10:42:11;;;;;;;81.68;74.05;;;0.50;99.90;;;;;;5019228;28;20041;-75
2022/12/15 10:44:41;;;;;;;78.07;70.95;;;0.50;99.90;;;;;;5037425;28;20123;-75
2022/12/15 10:47:15;;;;;;;79.38;71.65;;;0.60;99.90;;;;;;5040031;28;20241;-75
2022/12/15 10:49:42;;;;;;;77.00;69.55;;;0.70;99.90;;;;;;5039177;28;20145;-75
2022/12/15 10:52:20;;;;;;;73.72;67.28;;;0.50;99.90;;;;;;5050479;28;20064;-75
2022/12/15 10:54:49;;;;;;;65.78;60.35;;;0.70;99.90;;;;;;5015843;28;20678;-75
2022/12/15 10:57:20;;;;;;;68.30;62.45;;;0.50;99.90;;;;;;5016887;28;20280;-76
2022/12/15 10:59:47;;;;;;;65.90;60.40;;;0.50;99.90;;;;;;5017574;28;20041;-75
2022/12/15 11:02:35;;;;;;;62.95;57.72;;;0.60;99.90;;;;;;5000338;28;20049;-76
2022/12/15 11:05:05;;;;;;;61.13;56.40;;;0.90;99.90;;;;;;5015422;28;20045;-75
2022/12/15 11:07:33;;;;;;;61.30;56.45;;;1.10;99.90;;;;;;5013422;28;20041;-76
2022/12/15 11:10:07;;;;;;;59.72;55.53;;;1.00;99.90;;;;;;5015192;28;20045;-75
2022/12/15 11:12:51;;;;;;;64.90;59.78;;;1.00;99.90;;;;;;5027692;28;20043;-72
2022/12/15 11:15:27;;;;;;;66.53;60.90;;;0.90;99.90;;;;;;5045088;28;20049;-73
2022/12/15 11:18:11;;;;;;;63.60;58.78;;;1.00;99.90;;;;;;5012925;28;20063;-73
2022/12/15 11:20:43;;;;;;;61.38;56.95;;;1.00;99.90;;;;;;5015207;28;20124;-72
2022/12/15 11:23:49;;;;;;;60.20;55.90;;;1.20;99.90;;;;;;5017135;28;20515;-72
2022/12/15 11:26:18;;;;;;;60.83;56.45;;;1.10;99.90;;;;;;5011066;28;20045;-71
2022/12/15 11:28:54;;;;;;;61.42;57.22;;;1.10;99.90;;;;;;5027416;28;20209;-71
2022/12/15 11:31:37;;;;;;;64.20;59.30;;;1.20;99.90;;;;;;5018544;28;20595;-72
2022/12/15 11:34:14;;;;;;;64.18;59.50;;;1.30;99.90;;;;;;5028559;28;20061;-72
2022/12/15 11:37:14;;;;;;;63.72;58.80;;;1.20;99.90;;;;;;5012005;28;20504;-72
2022/12/15 11:40:14;;;;;;;63.53;58.42;;;1.00;99.90;;;;;;5024301;28;20865;-72
2022/12/15 11:43:04;;;;;;;64.88;59.47;;;1.10;99.90;;;;;;5013967;28;20049;-72
2022/12/15 11:45:36;;;;;;;65.22;60.40;;;1.30;99.90;;;;;;5042912;28;20178;-72
2022/12/15 11:48:12;;;;;;;62.13;57.42;;;1.30;99.90;;;;;;5013018;28;20490;-72
2022/12/15 11:51:13;;;;;;;64.40;59.70;;;1.40;99.90;;;;;;4993945;28;20161;-72
2022/12/15 11:53:59;;;;;;;61.20;56.80;;;1.30;99.90;;;;;;5026216;28;20041;-72
2022/12/15 11:56:47;;;;;;;63.30;58.40;;;1.10;99.90;;;;;;5015015;28;20152;-71
2022/12/15 11:59:31;;;;;;;64.82;59.53;;;1.10;99.90;;;;;;5017345;28;20128;-72
2022/12/15 12:02:21;;;;;;;61.53;56.38;;;1.10;99.90;;;;;;4991592;28;20049;-72
2022/12/15 12:05:01;;;;;;;62.05;57.70;;;1.10;99.90;;;;;;4992160;28;20282;-72
2022/12/15 12:07:34;;;;;;;62.42;57.83;;;1.10;99.90;;;;;;5011101;28;20240;-72
2022/12/15 12:10:26;;;;;;;61.28;56.92;;;1.20;99.90;;;;;;5015909;28;20049;-73
2022/12/15 12:12:55;;;;;;;;;;;1.30;99.90;;;;;;5014021;28;20326;-72
2022/12/15 12:15:49;;;;;;;58.58;54.25;;;1.30;99.90;;;;;;5014307;28;19921;-72
2022/12/15 12:18:23;;;;;;;61.20;56.22;;;1.40;99.90;;;;;;4964223;28;20519;-72
2022/12/15 12:21:13;;;;;;;58.70;54.63;;;1.60;99.90;;;;;;5010713;28;20032;-72
2022/12/15 12:24:24;;;;;;;57.92;53.72;;;1.60;99.90;;;;;;5011931;28;20488;-72
2022/12/15 12:27:00;;;;;;;59.70;55.25;;;1.60;99.90;;;;;;4935096;28;20802;-72
2022/12/15 12:29:37;;;;;;;57.80;53.45;;;1.50;99.90;;;;;;5022314;28;20057;-72
2022/12/15 12:32:32;;;;;;;56.30;51.65;;;1.40;99.90;;;;;;5026822;28;20427;-73
2022/12/15 12:35:12;;;;;;;59.53;55.25;;;1.40;99.90;;;;;;5029016;28;20041;-72
2022/12/15 12:38:01;;;;;;;58.38;54.25;;;1.50;99.90;;;;;;5013120;28;20037;-72
2022/12/15 12:41:00;;;;;;;55.17;51.00;;;1.30;99.90;;;;;;5011324;28;20060;-73
2022/12/15 12:43:32;;;;;;;58.95;54.70;;;1.30;99.90;;;;;;5027713;28;20045;-72
2022/12/15 12:46:00;;;;;;;57.67;53.50;;;1.30;99.90;;;;;;5012851;28;20050;-72
2022/12/15 12:48:49;;;;;;;60.55;55.75;;;1.30;99.90;;;;;;5013344;28;20045;-72
2022/12/15 12:51:25;;;;;;;60.10;55.60;;;1.30;99.90;;;;;;5011732;28;20041;-72
2022/12/15 12:53:53;;;;;;;59.53;54.88;;;1.40;99.90;;;;;;5011711;28;20053;-72
2022/12/15 12:56:42;;;;;;;60.85;56.20;;;1.40;99.90;;;;;;5013163;28;20475;-73
2022/12/15 12:59:29;;;;;;;59.70;55.20;;;1.30;99.90;;;;;;4996730;28;20236;-72
2022/12/15 13:02:17;;;;;;;57.15;53.08;;;1.30;99.90;;;;;;5024859;28;20140;-72
2022/12/15 13:05:03;;;;;;;58.58;54.25;;;1.30;99.90;;;;;;5010465;28;20519;-72
2022/12/15 13:07:35;;;;;;;57.17;53.03;;;1.40;99.90;;;;;;5041936;28;20420;-72
2022/12/15 13:10:01;;;;;;;62.13;57.15;;;1.40;99.90;;;;;;5010753;28;20052;-73
2022/12/15 13:12:33;;;;;;;54.42;50.25;;;1.40;99.90;;;;;;5013087;28;20121;-73
2022/12/15 13:15:25;;;;;;;56.22;51.35;;;1.40;99.90;;;;;;5011068;28;20558;-72
2022/12/15 13:17:56;;;;;;;54.25;49.75;;;1.40;99.90;;;;;;5011502;28;20052;-72
2022/12/15 13:20:30;;;;;;;51.22;47.33;;;1.30;99.90;;;;;;5013163;28;20425;-72
2022/12/15 13:23:24;;;;;;;56.80;52.35;;;1.20;99.90;;;;;;5027353;28;20072;-72
2022/12/15 13:25:56;;;;;;;61.80;56.83;;;1.20;99.90;;;;;;5022200;28;20049;-72
2022/12/15 13:28:38;;;;;;;60.30;56.00;;;1.10;99.90;;;;;;5015174;28;20092;-72
2022/12/15 13:31:18;;;;;;;58.63;54.22;;;1.20;99.90;;;;;;5010808;28;20233;-73
2022/12/15 13:33:48;;;;;;;59.72;55.60;;;1.10;99.90;;;;;;4992930;28;20042;-73
2022/12/15 13:36:40;;;;;;;61.28;56.67;;;1.00;99.90;;;;;;5012635;28;20541;-73
2022/12/15 13:39:16;;;;;;;59.95;55.58;;;1.00;99.90;;;;;;5008485;28;20140;-72
2022/12/15 13:41:46;;;;;;;58.35;53.50;;;1.00;99.90;;;;;;5009672;28;20056;-73
2022/12/15 13:44:43;;;;;;;60.40;55.55;;;0.90;99.90;;;;;;5013109;28;20101;-73
2022/12/15 13:47:15;;;;;;;61.00;56.28;;;0.70;99.90;;;;;;5014049;28;20034;-73
2022/12/15 13:49:59;;;;;;;62.50;57.72;;;0.70;99.90;;;;;;5008488;28;20656;-73
2022/12/15 13:52:49;;;;;;;65.03;59.85;;;0.50;99.90;;;;;;5012095;28;20037;-73
2022/12/15 13:55:38;;;;;;;63.08;58.17;;;0.50;99.90;;;;;;5025793;28;20399;-73
2022/12/15 13:58:12;;;;;;;62.55;57.92;;;0.50;99.90;;;;;;5018931;28;20053;-73
2022/12/15 14:00:45;;;;;;;65.70;60.88;;;0.50;99.90;;;;;;5020400;28;20034;-73
2022/12/15 14:03:14;;;;;;;55.47;51.08;;;0.50;99.90;;;;;;5016719;28;20041;-72
2022/12/15 14:05:54;;;;;;;68.22;63.42;;;0.40;99.90;;;;;;5012324;28;20482;-73
2022/12/15 14:08:23;;;;;;;54.40;50.10;;;0.40;99.90;;;;;;5017939;28;20063;-72
2022/12/15 14:10:56;;;;;;;59.30;54.55;;;0.40;99.90;;;;;;5013808;28;20322;-72
2022/12/15 14:13:32;;;;;;;57.55;53.17;;;0.30;99.90;;;;;;5017060;28;20041;-73
2022/12/15 14:16:13;;;;;;;59.25;54.08;;;0.20;99.90;;;;;;5017617;28;20041;-72
2022/12/15 14:18:43;;;;;;;61.08;56.30;;;0.20;99.90;;;;;;5030460;28;20099;-73
2022/12/15 14:21:23;;;;;;;62.08;57.35;;;0.20;99.90;;;;;;5010100;28;20119;-72
2022/12/15 14:23:49;;;;;;;60.45;55.38;;;0.20;99.90;;;;;;5011416;28;20132;-73
2022/12/15 14:26:36;;;;;;;59.75;54.85;;;0.10;99.90;;;;;;5016097;28;20064;-73
2022/12/15 14:29:05;;;;;;;62.17;56.97;;;0.10;99.90;;;;;;5015769;28;20041;-72
2022/12/15 14:31:32;;;;;;;58.10;53.28;;;0.10;99.90;;;;;;5016414;28;20916;-74
2022/12/15 14:34:10;;;;;;;60.42;55.08;;;0.10;99.90;;;;;;5017401;28;20048;-75
2022/12/15 14:36:40;;;;;;;60.67;54.85;;;0.00;99.90;;;;;;5018585;28;20045;-74
2022/12/15 14:39:16;;;;;;;62.45;56.33;;;-0.10;99.90;;;;;;5015525;28;20064;-74
2022/12/15 14:41:45;;;;;;;59.17;54.05;;;-0.10;99.90;;;;;;5013318;28;20076;-74
2022/12/15 14:44:34;;;;;;;57.90;52.38;;;-0.20;99.90;;;;;;5019425;28;20395;-75
2022/12/15 14:47:15;;;;;;;62.33;56.28;;;-0.20;99.90;;;;;;5046987;28;20124;-75
2022/12/15 14:49:44;;;;;;;61.97;56.17;;;-0.20;99.90;;;;;;5013659;28;20072;-74
2022/12/15 14:52:22;;;;;;;65.35;59.08;;;-0.30;99.90;;;;;;5015942;28;20515;-75
2022/12/15 14:54:58;;;;;;;66.43;59.85;;;-0.30;99.90;;;;;;5013307;28;20515;-75
2022/12/15 14:57:44;;;;;;;69.15;62.90;;;-0.40;99.90;;;;;;5032409;28;20417;-75
2022/12/15 15:00:33;;;;;;;66.72;60.75;;;-0.50;99.90;;;;;;5027887;28;20033;-74
2022/12/15 15:03:14;;;;;;;55.92;46.42;;;-0.60;99.90;;;;;;5030031;28;20495;-75
2022/12/15 15:05:55;;;;;;;56.30;46.28;;;-0.70;99.90;;;;;;5013271;28;20136;-76
2022/12/15 15:08:25;;;;;;;51.42;44.03;;;-1.00;99.90;;;;;;5017913;28;20053;-75
2022/12/15 15:10:54;;;;;;;50.40;44.28;;;-1.10;99.90;;;;;;5027404;28;21459;-75
2022/12/15 15:13:25;;;;;;;67.80;55.45;;;-1.20;99.90;;;;;;5011207;28;20069;-74
2022/12/15 15:15:55;;;;;;;62.58;51.15;;;-1.30;99.90;;;;;;5014193;28;21553;-75
2022/12/15 15:18:26;;;;;;;70.38;59.50;;;-1.40;99.90;;;;;;5017922;28;20045;-74
2022/12/15 15:21:02;;;;;;;70.35;59.45;;;-1.50;99.90;;;;;;5027759;28;20038;-74
2022/12/15 15:23:29;;;;;;;65.38;49.35;;;-1.60;99.90;;;;;;5016650;28;20056;-75